Chiloquin, OR (97604)

12:54 AM PDT on August 25, 2016 (GMT -0700)
Chiloquin Williamson River | | Change Station

Elev 4173 ft 42.58 °N, 121.86 °W | Updated 5 seconds ago

Clear
Clear
59.4 °F
Feels Like 59.4 °F
N
0.9
Wind Variable Wind from ENE
Gusts 2.5 mph

Today
High -- | Low -- °F
--% Chance of Precip.
Yesterday
High -- | Low -- °F
Precip. -- in
Pressure 30.04 in
Visibility 10.0 miles
Clouds Clear
Dew Point 35 °F
Humidity 40%
Rainfall 0.00 in
Snow Depth Not available.
6:25 AM 7:52 PM
Waning Gibbous, 48% visible
METAR KLMT 250653Z AUTO 35004KT 10SM CLR 18/00 A3017 RMK AO2 SLP173 T01780000
Pressure 30.04 in
Visibility 10.0 miles
Clouds Clear
Dew Point 35 °F
Humidity 40%
Rainfall 0.00 in
Snow Depth Not available.
6:25 AM 7:52 PM
Waning Gibbous, 48% visible
METAR KLMT 250653Z AUTO 35004KT 10SM CLR 18/00 A3017 RMK AO2 SLP173 T01780000

10-Day Weather Forecast

Almanac

Astronomy

Aug. 25, 2016 Rise Set
Actual Time
Civil Twilight
Nautical Twilight
Astronomical Twilight
Moon
Length of Visible Light
Length of Day
Tomorrow will be .
, % of the Moon is Illuminated

Today's Extremes

State Highs State Lows

Community

WunderPhotos

Upload Photos

1,934,814 photos uploaded!

WunderBlog® & News

Nearby

Air Quality

  Air Quality AQ Index Pollutant
Not available.

Snow Depth

Station Depth Elevation

Earthquake Activity

City Distance Mag. Time & Date
Minimum magnitude displayed is 2.5.

Coastal Water Temperatures

Place Temperature

Stations

Nearby Weather Stations

Station Location Temp. Windchill Dew Point Humidity Wind Precip. Elev Updated Type
                   

Watches & Warnings

There are currently no watches in effect.